sensor_id;sensor_type;location;lat;lon;timestamp;P1;durP1;ratioP1;P2;durP2;ratioP2
18503;SDS011;9381;54.244;10.074;2023-08-06T00:04:44;6.75;;;3.45;;
18503;SDS011;9381;54.244;10.074;2023-08-06T00:09:44;8.60;;;3.50;;
18503;SDS011;9381;54.244;10.074;2023-08-06T00:14:49;4.20;;;3.07;;
18503;SDS011;9381;54.244;10.074;2023-08-06T00:19:51;7.40;;;3.60;;
18503;SDS011;9381;54.244;10.074;2023-08-06T00:24:51;3.77;;;2.93;;
18503;SDS011;9381;54.244;10.074;2023-08-06T00:29:52;5.17;;;3.20;;
18503;SDS011;9381;54.244;10.074;2023-08-06T00:34:53;4.10;;;3.30;;
18503;SDS011;9381;54.244;10.074;2023-08-06T00:39:53;5.70;;;3.20;;
18503;SDS011;9381;54.244;10.074;2023-08-06T00:44:53;4.20;;;2.53;;
18503;SDS011;9381;54.244;10.074;2023-08-06T00:49:53;3.38;;;2.50;;
18503;SDS011;9381;54.244;10.074;2023-08-06T00:54:54;5.17;;;2.97;;
18503;SDS011;9381;54.244;10.074;2023-08-06T00:59:54;10.53;;;3.90;;
18503;SDS011;9381;54.244;10.074;2023-08-06T01:04:55;5.57;;;3.20;;
18503;SDS011;9381;54.244;10.074;2023-08-06T01:20:14;4.57;;;4.00;;
18503;SDS011;9381;54.244;10.074;2023-08-06T01:25:15;8.80;;;4.13;;
18503;SDS011;9381;54.244;10.074;2023-08-06T01:30:17;5.13;;;3.80;;
18503;SDS011;9381;54.244;10.074;2023-08-06T01:35:26;6.23;;;3.70;;
18503;SDS011;9381;54.244;10.074;2023-08-06T01:40:29;8.23;;;3.83;;
18503;SDS011;9381;54.244;10.074;2023-08-06T01:45:29;6.10;;;3.63;;
18503;SDS011;9381;54.244;10.074;2023-08-06T01:50:30;6.15;;;3.67;;
18503;SDS011;9381;54.244;10.074;2023-08-06T01:55:30;8.37;;;3.30;;
18503;SDS011;9381;54.244;10.074;2023-08-06T02:00:30;6.60;;;4.03;;
18503;SDS011;9381;54.244;10.074;2023-08-06T02:05:31;5.95;;;3.65;;
18503;SDS011;9381;54.244;10.074;2023-08-06T02:10:31;10.27;;;4.32;;
18503;SDS011;9381;54.244;10.074;2023-08-06T02:15:32;6.50;;;4.00;;
18503;SDS011;9381;54.244;10.074;2023-08-06T02:20:32;6.45;;;3.92;;
18503;SDS011;9381;54.244;10.074;2023-08-06T02:25:32;7.75;;;4.45;;
18503;SDS011;9381;54.244;10.074;2023-08-06T02:30:33;7.30;;;4.50;;
18503;SDS011;9381;54.244;10.074;2023-08-06T02:35:33;9.73;;;4.57;;
18503;SDS011;9381;54.244;10.074;2023-08-06T02:40:33;6.20;;;4.40;;
18503;SDS011;9381;54.244;10.074;2023-08-06T02:45:33;8.98;;;4.60;;
18503;SDS011;9381;54.244;10.074;2023-08-06T02:50:37;7.27;;;4.70;;
18503;SDS011;9381;54.244;10.074;2023-08-06T02:55:47;6.87;;;4.60;;
18503;SDS011;9381;54.244;10.074;2023-08-06T03:01:04;7.13;;;4.43;;
18503;SDS011;9381;54.244;10.074;2023-08-06T03:06:06;8.03;;;4.87;;
18503;SDS011;9381;54.244;10.074;2023-08-06T03:11:07;6.70;;;4.20;;
18503;SDS011;9381;54.244;10.074;2023-08-06T03:16:07;10.23;;;5.27;;
18503;SDS011;9381;54.244;10.074;2023-08-06T03:21:07;8.37;;;5.40;;
18503;SDS011;9381;54.244;10.074;2023-08-06T03:26:08;8.30;;;5.20;;
18503;SDS011;9381;54.244;10.074;2023-08-06T03:31:08;9.10;;;4.87;;
18503;SDS011;9381;54.244;10.074;2023-08-06T03:36:08;10.17;;;5.53;;
18503;SDS011;9381;54.244;10.074;2023-08-06T03:41:09;14.80;;;5.23;;
18503;SDS011;9381;54.244;10.074;2023-08-06T03:46:09;12.40;;;5.80;;
18503;SDS011;9381;54.244;10.074;2023-08-06T03:51:09;10.15;;;6.22;;
18503;SDS011;9381;54.244;10.074;2023-08-06T03:56:09;9.67;;;5.97;;
18503;SDS011;9381;54.244;10.074;2023-08-06T04:01:10;8.18;;;5.05;;
18503;SDS011;9381;54.244;10.074;2023-08-06T04:06:10;11.50;;;5.20;;
18503;SDS011;9381;54.244;10.074;2023-08-06T04:11:13;7.85;;;5.55;;
18503;SDS011;9381;54.244;10.074;2023-08-06T04:16:14;11.23;;;5.47;;
18503;SDS011;9381;54.244;10.074;2023-08-06T04:21:14;8.53;;;5.50;;
18503;SDS011;9381;54.244;10.074;2023-08-06T04:26:15;9.50;;;5.53;;
18503;SDS011;9381;54.244;10.074;2023-08-06T04:31:15;7.40;;;4.90;;
18503;SDS011;9381;54.244;10.074;2023-08-06T04:36:16;10.73;;;6.20;;
18503;SDS011;9381;54.244;10.074;2023-08-06T04:41:17;8.40;;;4.97;;
18503;SDS011;9381;54.244;10.074;2023-08-06T04:46:18;9.03;;;5.50;;
18503;SDS011;9381;54.244;10.074;2023-08-06T04:51:18;10.15;;;5.20;;
18503;SDS011;9381;54.244;10.074;2023-08-06T04:56:18;9.57;;;5.60;;
18503;SDS011;9381;54.244;10.074;2023-08-06T05:01:18;9.68;;;5.82;;
18503;SDS011;9381;54.244;10.074;2023-08-06T05:06:19;8.97;;;4.97;;
18503;SDS011;9381;54.244;10.074;2023-08-06T05:11:19;10.05;;;5.43;;
18503;SDS011;9381;54.244;10.074;2023-08-06T05:16:19;6.57;;;5.47;;
18503;SDS011;9381;54.244;10.074;2023-08-06T05:21:20;8.10;;;5.75;;
18503;SDS011;9381;54.244;10.074;2023-08-06T05:26:20;7.55;;;5.43;;
18503;SDS011;9381;54.244;10.074;2023-08-06T05:31:20;7.37;;;5.37;;
18503;SDS011;9381;54.244;10.074;2023-08-06T05:36:21;8.32;;;4.78;;
18503;SDS011;9381;54.244;10.074;2023-08-06T05:41:21;8.00;;;4.60;;
18503;SDS011;9381;54.244;10.074;2023-08-06T05:46:21;8.00;;;4.90;;
18503;SDS011;9381;54.244;10.074;2023-08-06T05:51:25;9.90;;;5.17;;
18503;SDS011;9381;54.244;10.074;2023-08-06T05:56:26;9.63;;;4.40;;
18503;SDS011;9381;54.244;10.074;2023-08-06T06:01:27;7.88;;;4.63;;
18503;SDS011;9381;54.244;10.074;2023-08-06T06:06:27;6.53;;;4.60;;
18503;SDS011;9381;54.244;10.074;2023-08-06T06:11:27;6.60;;;4.57;;
18503;SDS011;9381;54.244;10.074;2023-08-06T06:16:27;6.45;;;4.65;;
18503;SDS011;9381;54.244;10.074;2023-08-06T06:21:28;5.77;;;4.23;;
18503;SDS011;9381;54.244;10.074;2023-08-06T06:26:28;4.90;;;4.37;;
18503;SDS011;9381;54.244;10.074;2023-08-06T06:31:28;6.93;;;4.00;;
18503;SDS011;9381;54.244;10.074;2023-08-06T06:36:29;10.03;;;4.53;;
18503;SDS011;9381;54.244;10.074;2023-08-06T06:41:29;6.50;;;4.53;;
18503;SDS011;9381;54.244;10.074;2023-08-06T06:46:31;8.23;;;4.50;;
18503;SDS011;9381;54.244;10.074;2023-08-06T06:51:32;6.70;;;4.35;;
18503;SDS011;9381;54.244;10.074;2023-08-06T06:56:32;6.73;;;3.83;;
18503;SDS011;9381;54.244;10.074;2023-08-06T07:01:32;9.23;;;4.32;;
18503;SDS011;9381;54.244;10.074;2023-08-06T07:06:33;9.75;;;4.18;;
18503;SDS011;9381;54.244;10.074;2023-08-06T07:11:33;5.15;;;4.18;;
18503;SDS011;9381;54.244;10.074;2023-08-06T07:16:33;7.67;;;3.93;;
18503;SDS011;9381;54.244;10.074;2023-08-06T07:21:34;10.67;;;4.90;;
18503;SDS011;9381;54.244;10.074;2023-08-06T07:26:35;11.52;;;3.85;;
18503;SDS011;9381;54.244;10.074;2023-08-06T07:31:35;12.97;;;4.63;;
18503;SDS011;9381;54.244;10.074;2023-08-06T07:36:36;7.23;;;3.73;;
18503;SDS011;9381;54.244;10.074;2023-08-06T07:41:36;4.90;;;3.45;;
18503;SDS011;9381;54.244;10.074;2023-08-06T07:46:36;4.73;;;3.53;;
18503;SDS011;9381;54.244;10.074;2023-08-06T07:51:38;9.30;;;4.07;;
18503;SDS011;9381;54.244;10.074;2023-08-06T07:56:38;5.83;;;3.77;;
18503;SDS011;9381;54.244;10.074;2023-08-06T08:01:38;7.73;;;3.30;;
18503;SDS011;9381;54.244;10.074;2023-08-06T08:06:39;8.57;;;3.70;;
18503;SDS011;9381;54.244;10.074;2023-08-06T08:11:40;6.00;;;3.75;;
18503;SDS011;9381;54.244;10.074;2023-08-06T08:16:41;6.43;;;3.57;;
18503;SDS011;9381;54.244;10.074;2023-08-06T08:21:42;7.20;;;3.47;;
18503;SDS011;9381;54.244;10.074;2023-08-06T08:26:42;7.15;;;3.20;;
18503;SDS011;9381;54.244;10.074;2023-08-06T08:31:42;8.53;;;3.23;;
18503;SDS011;9381;54.244;10.074;2023-08-06T08:36:43;6.17;;;3.40;;
18503;SDS011;9381;54.244;10.074;2023-08-06T08:41:46;7.07;;;3.47;;
18503;SDS011;9381;54.244;10.074;2023-08-06T08:46:47;7.20;;;3.47;;
18503;SDS011;9381;54.244;10.074;2023-08-06T08:51:48;5.10;;;2.50;;
18503;SDS011;9381;54.244;10.074;2023-08-06T08:56:50;4.90;;;3.07;;
18503;SDS011;9381;54.244;10.074;2023-08-06T09:01:51;3.60;;;2.40;;
18503;SDS011;9381;54.244;10.074;2023-08-06T09:06:53;6.60;;;2.70;;
18503;SDS011;9381;54.244;10.074;2023-08-06T09:12:00;4.67;;;2.27;;
18503;SDS011;9381;54.244;10.074;2023-08-06T09:17:03;4.77;;;2.53;;
18503;SDS011;9381;54.244;10.074;2023-08-06T09:22:05;7.27;;;2.80;;
18503;SDS011;9381;54.244;10.074;2023-08-06T09:27:14;6.17;;;2.17;;
18503;SDS011;9381;54.244;10.074;2023-08-06T09:32:14;7.60;;;2.27;;
18503;SDS011;9381;54.244;10.074;2023-08-06T09:37:15;5.87;;;2.10;;
18503;SDS011;9381;54.244;10.074;2023-08-06T09:42:15;4.00;;;2.47;;
18503;SDS011;9381;54.244;10.074;2023-08-06T09:47:16;6.27;;;2.50;;
18503;SDS011;9381;54.244;10.074;2023-08-06T09:52:18;3.13;;;2.03;;
18503;SDS011;9381;54.244;10.074;2023-08-06T09:57:18;4.77;;;2.10;;
18503;SDS011;9381;54.244;10.074;2023-08-06T10:02:20;5.40;;;2.30;;
18503;SDS011;9381;54.244;10.074;2023-08-06T10:07:26;5.47;;;2.50;;
18503;SDS011;9381;54.244;10.074;2023-08-06T10:12:28;3.60;;;2.60;;
18503;SDS011;9381;54.244;10.074;2023-08-06T10:17:32;4.93;;;2.20;;
18503;SDS011;9381;54.244;10.074;2023-08-06T10:22:34;5.03;;;2.10;;
18503;SDS011;9381;54.244;10.074;2023-08-06T10:27:35;4.57;;;2.60;;
18503;SDS011;9381;54.244;10.074;2023-08-06T10:32:46;3.83;;;2.00;;
18503;SDS011;9381;54.244;10.074;2023-08-06T10:37:48;7.00;;;2.87;;
18503;SDS011;9381;54.244;10.074;2023-08-06T10:42:48;3.47;;;2.20;;
18503;SDS011;9381;54.244;10.074;2023-08-06T10:47:48;3.35;;;2.17;;
18503;SDS011;9381;54.244;10.074;2023-08-06T10:52:49;4.33;;;2.10;;
18503;SDS011;9381;54.244;10.074;2023-08-06T10:57:50;5.90;;;2.43;;
18503;SDS011;9381;54.244;10.074;2023-08-06T11:02:51;5.33;;;2.50;;
18503;SDS011;9381;54.244;10.074;2023-08-06T11:07:52;3.87;;;2.60;;
18503;SDS011;9381;54.244;10.074;2023-08-06T11:12:53;5.67;;;2.40;;
18503;SDS011;9381;54.244;10.074;2023-08-06T11:17:53;7.60;;;2.67;;
18503;SDS011;9381;54.244;10.074;2023-08-06T11:22:53;3.07;;;2.20;;
18503;SDS011;9381;54.244;10.074;2023-08-06T11:27:53;6.13;;;2.40;;
18503;SDS011;9381;54.244;10.074;2023-08-06T11:32:54;5.50;;;1.97;;
18503;SDS011;9381;54.244;10.074;2023-08-06T11:37:54;6.33;;;2.57;;
18503;SDS011;9381;54.244;10.074;2023-08-06T11:42:54;8.55;;;2.92;;
18503;SDS011;9381;54.244;10.074;2023-08-06T11:47:56;4.20;;;2.13;;
18503;SDS011;9381;54.244;10.074;2023-08-06T11:52:56;3.78;;;2.45;;
18503;SDS011;9381;54.244;10.074;2023-08-06T11:58:02;6.20;;;2.30;;
18503;SDS011;9381;54.244;10.074;2023-08-06T12:03:04;4.27;;;2.33;;
18503;SDS011;9381;54.244;10.074;2023-08-06T12:08:05;7.40;;;2.37;;
18503;SDS011;9381;54.244;10.074;2023-08-06T12:13:05;2.97;;;2.40;;
18503;SDS011;9381;54.244;10.074;2023-08-06T12:18:06;3.87;;;2.30;;
18503;SDS011;9381;54.244;10.074;2023-08-06T12:23:06;4.18;;;2.47;;
18503;SDS011;9381;54.244;10.074;2023-08-06T12:28:07;3.73;;;2.60;;
18503;SDS011;9381;54.244;10.074;2023-08-06T12:33:08;2.70;;;2.47;;
18503;SDS011;9381;54.244;10.074;2023-08-06T12:38:09;5.17;;;2.30;;
18503;SDS011;9381;54.244;10.074;2023-08-06T12:43:09;4.77;;;2.30;;
18503;SDS011;9381;54.244;10.074;2023-08-06T12:48:10;5.57;;;2.13;;
18503;SDS011;9381;54.244;10.074;2023-08-06T12:53:10;3.43;;;2.20;;
18503;SDS011;9381;54.244;10.074;2023-08-06T12:58:10;5.20;;;2.70;;
18503;SDS011;9381;54.244;10.074;2023-08-06T13:03:11;4.03;;;2.13;;
18503;SDS011;9381;54.244;10.074;2023-08-06T13:08:11;4.07;;;2.30;;
18503;SDS011;9381;54.244;10.074;2023-08-06T13:13:11;4.47;;;2.17;;
18503;SDS011;9381;54.244;10.074;2023-08-06T13:18:12;4.73;;;2.57;;
18503;SDS011;9381;54.244;10.074;2023-08-06T13:23:12;5.37;;;2.10;;
18503;SDS011;9381;54.244;10.074;2023-08-06T13:28:15;6.27;;;2.17;;
18503;SDS011;9381;54.244;10.074;2023-08-06T13:33:15;2.70;;;1.90;;
18503;SDS011;9381;54.244;10.074;2023-08-06T13:38:16;5.82;;;2.55;;
18503;SDS011;9381;54.244;10.074;2023-08-06T13:43:16;3.87;;;2.20;;
18503;SDS011;9381;54.244;10.074;2023-08-06T13:48:19;6.17;;;2.30;;
18503;SDS011;9381;54.244;10.074;2023-08-06T13:53:19;3.27;;;2.13;;
18503;SDS011;9381;54.244;10.074;2023-08-06T13:58:19;4.60;;;2.00;;
18503;SDS011;9381;54.244;10.074;2023-08-06T14:03:20;5.78;;;2.17;;
18503;SDS011;9381;54.244;10.074;2023-08-06T14:08:20;3.80;;;2.30;;
18503;SDS011;9381;54.244;10.074;2023-08-06T14:13:21;5.45;;;2.30;;
18503;SDS011;9381;54.244;10.074;2023-08-06T14:18:22;5.90;;;2.63;;
18503;SDS011;9381;54.244;10.074;2023-08-06T14:23:22;3.58;;;2.03;;
18503;SDS011;9381;54.244;10.074;2023-08-06T14:28:22;4.03;;;2.20;;
18503;SDS011;9381;54.244;10.074;2023-08-06T14:33:22;5.75;;;3.70;;
18503;SDS011;9381;54.244;10.074;2023-08-06T14:38:23;4.85;;;2.35;;
18503;SDS011;9381;54.244;10.074;2023-08-06T14:43:23;3.23;;;2.20;;
18503;SDS011;9381;54.244;10.074;2023-08-06T14:48:23;4.40;;;2.40;;
18503;SDS011;9381;54.244;10.074;2023-08-06T14:53:24;4.17;;;2.33;;
18503;SDS011;9381;54.244;10.074;2023-08-06T14:58:24;4.13;;;2.43;;
18503;SDS011;9381;54.244;10.074;2023-08-06T15:03:24;3.07;;;2.00;;
18503;SDS011;9381;54.244;10.074;2023-08-06T15:08:25;4.87;;;2.40;;
18503;SDS011;9381;54.244;10.074;2023-08-06T15:13:25;4.53;;;2.90;;
18503;SDS011;9381;54.244;10.074;2023-08-06T15:18:26;5.90;;;2.60;;
18503;SDS011;9381;54.244;10.074;2023-08-06T15:23:27;5.10;;;2.70;;
18503;SDS011;9381;54.244;10.074;2023-08-06T15:28:27;5.07;;;2.92;;
18503;SDS011;9381;54.244;10.074;2023-08-06T15:33:27;5.10;;;2.70;;
18503;SDS011;9381;54.244;10.074;2023-08-06T15:38:28;4.80;;;2.80;;
18503;SDS011;9381;54.244;10.074;2023-08-06T15:43:28;9.83;;;2.60;;
18503;SDS011;9381;54.244;10.074;2023-08-06T15:48:28;3.80;;;3.10;;
18503;SDS011;9381;54.244;10.074;2023-08-06T15:53:29;6.43;;;3.03;;
18503;SDS011;9381;54.244;10.074;2023-08-06T15:58:29;6.80;;;2.93;;
18503;SDS011;9381;54.244;10.074;2023-08-06T16:03:30;4.50;;;2.80;;
18503;SDS011;9381;54.244;10.074;2023-08-06T16:08:30;4.13;;;2.60;;
18503;SDS011;9381;54.244;10.074;2023-08-06T16:13:30;4.55;;;2.60;;
18503;SDS011;9381;54.244;10.074;2023-08-06T16:18:31;5.13;;;2.50;;
18503;SDS011;9381;54.244;10.074;2023-08-06T16:23:31;3.97;;;2.50;;
18503;SDS011;9381;54.244;10.074;2023-08-06T16:28:31;5.85;;;2.50;;
18503;SDS011;9381;54.244;10.074;2023-08-06T16:33:32;4.83;;;2.30;;
18503;SDS011;9381;54.244;10.074;2023-08-06T16:38:32;4.53;;;2.67;;
18503;SDS011;9381;54.244;10.074;2023-08-06T16:43:32;5.10;;;2.28;;
18503;SDS011;9381;54.244;10.074;2023-08-06T16:48:33;3.47;;;2.40;;
18503;SDS011;9381;54.244;10.074;2023-08-06T16:53:36;3.30;;;2.00;;
18503;SDS011;9381;54.244;10.074;2023-08-06T16:58:36;2.83;;;1.83;;
18503;SDS011;9381;54.244;10.074;2023-08-06T17:03:36;3.70;;;2.17;;
18503;SDS011;9381;54.244;10.074;2023-08-06T17:08:38;9.43;;;3.03;;
18503;SDS011;9381;54.244;10.074;2023-08-06T17:13:39;4.73;;;2.40;;
18503;SDS011;9381;54.244;10.074;2023-08-06T17:18:39;2.67;;;1.90;;
18503;SDS011;9381;54.244;10.074;2023-08-06T17:23:40;3.43;;;2.13;;
18503;SDS011;9381;54.244;10.074;2023-08-06T17:28:40;7.87;;;2.30;;
18503;SDS011;9381;54.244;10.074;2023-08-06T17:33:41;3.10;;;1.80;;
18503;SDS011;9381;54.244;10.074;2023-08-06T17:38:41;3.83;;;2.07;;
18503;SDS011;9381;54.244;10.074;2023-08-06T17:43:41;2.73;;;2.00;;
18503;SDS011;9381;54.244;10.074;2023-08-06T17:48:42;4.63;;;2.50;;
18503;SDS011;9381;54.244;10.074;2023-08-06T17:53:42;3.75;;;1.95;;
18503;SDS011;9381;54.244;10.074;2023-08-06T17:58:42;4.25;;;2.40;;
18503;SDS011;9381;54.244;10.074;2023-08-06T18:03:43;2.37;;;1.90;;
18503;SDS011;9381;54.244;10.074;2023-08-06T18:08:45;3.73;;;2.23;;
18503;SDS011;9381;54.244;10.074;2023-08-06T18:13:46;2.77;;;2.00;;
18503;SDS011;9381;54.244;10.074;2023-08-06T18:18:46;4.30;;;1.90;;
18503;SDS011;9381;54.244;10.074;2023-08-06T18:23:47;2.83;;;1.93;;
18503;SDS011;9381;54.244;10.074;2023-08-06T18:28:47;2.43;;;1.93;;
18503;SDS011;9381;54.244;10.074;2023-08-06T18:33:47;3.17;;;2.10;;
18503;SDS011;9381;54.244;10.074;2023-08-06T18:38:48;4.85;;;2.13;;
18503;SDS011;9381;54.244;10.074;2023-08-06T18:43:50;3.10;;;1.67;;
18503;SDS011;9381;54.244;10.074;2023-08-06T18:48:50;3.97;;;2.10;;
18503;SDS011;9381;54.244;10.074;2023-08-06T18:53:51;4.73;;;2.10;;
18503;SDS011;9381;54.244;10.074;2023-08-06T18:58:51;4.47;;;2.57;;
18503;SDS011;9381;54.244;10.074;2023-08-06T19:03:51;4.50;;;2.20;;
18503;SDS011;9381;54.244;10.074;2023-08-06T19:08:52;3.73;;;2.07;;
18503;SDS011;9381;54.244;10.074;2023-08-06T19:13:52;5.25;;;2.20;;
18503;SDS011;9381;54.244;10.074;2023-08-06T19:18:52;6.88;;;2.45;;
18503;SDS011;9381;54.244;10.074;2023-08-06T19:23:53;3.30;;;2.07;;
18503;SDS011;9381;54.244;10.074;2023-08-06T19:28:54;8.60;;;2.67;;
18503;SDS011;9381;54.244;10.074;2023-08-06T19:33:54;6.63;;;2.07;;
18503;SDS011;9381;54.244;10.074;2023-08-06T19:38:55;5.97;;;2.25;;
18503;SDS011;9381;54.244;10.074;2023-08-06T19:43:55;6.20;;;2.43;;
18503;SDS011;9381;54.244;10.074;2023-08-06T19:48:55;5.00;;;2.17;;
18503;SDS011;9381;54.244;10.074;2023-08-06T19:53:56;8.03;;;2.70;;
18503;SDS011;9381;54.244;10.074;2023-08-06T19:58:56;6.20;;;2.60;;
18503;SDS011;9381;54.244;10.074;2023-08-06T20:03:57;5.37;;;2.40;;
18503;SDS011;9381;54.244;10.074;2023-08-06T20:08:57;6.40;;;2.95;;
18503;SDS011;9381;54.244;10.074;2023-08-06T20:13:58;10.17;;;2.77;;
18503;SDS011;9381;54.244;10.074;2023-08-06T20:18:58;6.57;;;2.83;;
18503;SDS011;9381;54.244;10.074;2023-08-06T20:23:58;4.40;;;2.67;;
18503;SDS011;9381;54.244;10.074;2023-08-06T20:28:59;5.97;;;3.08;;
18503;SDS011;9381;54.244;10.074;2023-08-06T20:34:00;7.07;;;3.10;;
18503;SDS011;9381;54.244;10.074;2023-08-06T20:39:01;3.97;;;2.88;;
18503;SDS011;9381;54.244;10.074;2023-08-06T20:44:01;7.30;;;2.70;;
18503;SDS011;9381;54.244;10.074;2023-08-06T20:49:01;4.70;;;2.50;;
18503;SDS011;9381;54.244;10.074;2023-08-06T20:54:02;6.45;;;2.65;;
18503;SDS011;9381;54.244;10.074;2023-08-06T20:59:02;7.83;;;2.83;;
18503;SDS011;9381;54.244;10.074;2023-08-06T21:04:03;5.20;;;2.70;;
18503;SDS011;9381;54.244;10.074;2023-08-06T21:09:04;5.67;;;2.90;;
18503;SDS011;9381;54.244;10.074;2023-08-06T21:14:06;6.23;;;3.03;;
18503;SDS011;9381;54.244;10.074;2023-08-06T21:19:07;7.33;;;3.33;;
18503;SDS011;9381;54.244;10.074;2023-08-06T21:24:07;10.30;;;3.33;;
18503;SDS011;9381;54.244;10.074;2023-08-06T21:29:08;4.50;;;3.23;;
18503;SDS011;9381;54.244;10.074;2023-08-06T21:34:08;3.97;;;2.80;;
18503;SDS011;9381;54.244;10.074;2023-08-06T21:39:09;6.28;;;2.80;;
18503;SDS011;9381;54.244;10.074;2023-08-06T21:44:09;7.03;;;3.20;;
18503;SDS011;9381;54.244;10.074;2023-08-06T21:49:10;5.72;;;3.60;;
18503;SDS011;9381;54.244;10.074;2023-08-06T21:54:10;7.03;;;3.03;;
18503;SDS011;9381;54.244;10.074;2023-08-06T21:59:16;7.20;;;3.60;;
18503;SDS011;9381;54.244;10.074;2023-08-06T22:04:16;7.88;;;3.33;;
18503;SDS011;9381;54.244;10.074;2023-08-06T22:09:16;6.33;;;3.20;;
18503;SDS011;9381;54.244;10.074;2023-08-06T22:14:17;7.60;;;4.00;;
18503;SDS011;9381;54.244;10.074;2023-08-06T22:19:17;5.40;;;3.33;;
18503;SDS011;9381;54.244;10.074;2023-08-06T22:24:17;5.03;;;3.13;;
18503;SDS011;9381;54.244;10.074;2023-08-06T22:29:17;5.63;;;3.30;;
18503;SDS011;9381;54.244;10.074;2023-08-06T22:34:18;8.32;;;3.30;;
18503;SDS011;9381;54.244;10.074;2023-08-06T22:39:18;8.60;;;3.15;;
18503;SDS011;9381;54.244;10.074;2023-08-06T22:44:18;5.25;;;3.22;;
18503;SDS011;9381;54.244;10.074;2023-08-06T22:49:19;3.83;;;2.58;;
18503;SDS011;9381;54.244;10.074;2023-08-06T22:54:19;4.03;;;3.00;;
18503;SDS011;9381;54.244;10.074;2023-08-06T22:59:19;5.75;;;2.88;;
18503;SDS011;9381;54.244;10.074;2023-08-06T23:04:20;4.40;;;2.67;;
18503;SDS011;9381;54.244;10.074;2023-08-06T23:09:20;7.47;;;2.83;;
18503;SDS011;9381;54.244;10.074;2023-08-06T23:14:20;7.38;;;2.67;;
18503;SDS011;9381;54.244;10.074;2023-08-06T23:19:21;5.00;;;2.50;;
18503;SDS011;9381;54.244;10.074;2023-08-06T23:24:21;7.03;;;2.57;;
18503;SDS011;9381;54.244;10.074;2023-08-06T23:29:26;3.57;;;2.50;;
18503;SDS011;9381;54.244;10.074;2023-08-06T23:34:26;3.25;;;2.22;;
18503;SDS011;9381;54.244;10.074;2023-08-06T23:39:26;4.18;;;2.05;;
18503;SDS011;9381;54.244;10.074;2023-08-06T23:44:27;2.95;;;2.03;;
18503;SDS011;9381;54.244;10.074;2023-08-06T23:49:27;3.22;;;2.35;;
18503;SDS011;9381;54.244;10.074;2023-08-06T23:54:27;4.63;;;2.37;;
18503;SDS011;9381;54.244;10.074;2023-08-06T23:59:28;3.53;;;2.20;;
